sensor_id;sensor_type;location;lat;lon;timestamp;temperature;humidity
1063;DHT22;520;50.932;6.962;2023-01-15T00:02:04;10.20;99.50
1063;DHT22;520;50.932;6.962;2023-01-15T00:04:50;10.10;99.50
1063;DHT22;520;50.932;6.962;2023-01-15T00:07:36;10.10;99.40
1063;DHT22;520;50.932;6.962;2023-01-15T00:10:28;10.00;99.20
1063;DHT22;520;50.932;6.962;2023-01-15T00:13:14;10.00;99.20
1063;DHT22;520;50.932;6.962;2023-01-15T00:15:50;9.90;99.80
1063;DHT22;520;50.932;6.962;2023-01-15T00:21:30;9.90;99.90
1063;DHT22;520;50.932;6.962;2023-01-15T00:24:11;9.90;99.90
1063;DHT22;520;50.932;6.962;2023-01-15T00:27:10;9.90;99.90
1063;DHT22;520;50.932;6.962;2023-01-15T00:30:19;10.00;99.80
1063;DHT22;520;50.932;6.962;2023-01-15T00:33:00;9.80;99.90
1063;DHT22;520;50.932;6.962;2023-01-15T00:36:11;9.70;99.90
1063;DHT22;520;50.932;6.962;2023-01-15T00:38:45;9.70;99.90
1063;DHT22;520;50.932;6.962;2023-01-15T00:41:24;9.70;99.90
1063;DHT22;520;50.932;6.962;2023-01-15T00:44:40;9.70;99.90
1063;DHT22;520;50.932;6.962;2023-01-15T00:47:35;9.70;99.90
1063;DHT22;520;50.932;6.962;2023-01-15T00:50:48;9.70;99.90
1063;DHT22;520;50.932;6.962;2023-01-15T00:53:53;9.70;99.90
1063;DHT22;520;50.932;6.962;2023-01-15T00:59:57;9.70;99.90
1063;DHT22;520;50.932;6.962;2023-01-15T01:02:37;9.60;99.90
1063;DHT22;520;50.932;6.962;2023-01-15T01:05:07;9.60;99.90
1063;DHT22;520;50.932;6.962;2023-01-15T01:07:43;9.50;99.90
1063;DHT22;520;50.932;6.962;2023-01-15T01:10:22;9.40;99.90
1063;DHT22;520;50.932;6.962;2023-01-15T01:13:08;9.50;99.90
1063;DHT22;520;50.932;6.962;2023-01-15T01:15:53;9.40;99.90
1063;DHT22;520;50.932;6.962;2023-01-15T01:18:37;9.50;99.90
1063;DHT22;520;50.932;6.962;2023-01-15T01:21:19;9.70;99.90
1063;DHT22;520;50.932;6.962;2023-01-15T01:24:01;9.80;99.90
1063;DHT22;520;50.932;6.962;2023-01-15T01:26:40;10.00;98.50
1063;DHT22;520;50.932;6.962;2023-01-15T01:29:25;10.00;97.60
1063;DHT22;520;50.932;6.962;2023-01-15T01:32:08;9.90;98.40
1063;DHT22;520;50.932;6.962;2023-01-15T01:34:57;9.80;98.50
1063;DHT22;520;50.932;6.962;2023-01-15T01:40:57;9.50;98.90
1063;DHT22;520;50.932;6.962;2023-01-15T01:44:53;9.40;99.40
1063;DHT22;520;50.932;6.962;2023-01-15T01:47:28;9.60;98.70
1063;DHT22;520;50.932;6.962;2023-01-15T01:50:14;9.40;98.10
1063;DHT22;520;50.932;6.962;2023-01-15T01:53:04;9.30;98.50
1063;DHT22;520;50.932;6.962;2023-01-15T01:55:47;9.30;98.40
1063;DHT22;520;50.932;6.962;2023-01-15T01:58:42;9.30;98.40
1063;DHT22;520;50.932;6.962;2023-01-15T02:01:24;9.30;98.40
1063;DHT22;520;50.932;6.962;2023-01-15T02:04:20;9.30;98.30
1063;DHT22;520;50.932;6.962;2023-01-15T02:07:14;9.20;98.70
1063;DHT22;520;50.932;6.962;2023-01-15T02:09:52;9.10;99.30
1063;DHT22;520;50.932;6.962;2023-01-15T02:12:30;9.10;99.50
1063;DHT22;520;50.932;6.962;2023-01-15T02:15:36;9.10;99.60
1063;DHT22;520;50.932;6.962;2023-01-15T02:18:30;9.10;99.30
1063;DHT22;520;50.932;6.962;2023-01-15T02:27:22;9.70;96.90
1063;DHT22;520;50.932;6.962;2023-01-15T02:31:11;9.50;96.90
1063;DHT22;520;50.932;6.962;2023-01-15T02:33:34;9.50;97.10
1063;DHT22;520;50.932;6.962;2023-01-15T02:36:04;9.30;97.30
1063;DHT22;520;50.932;6.962;2023-01-15T02:38:56;9.30;97.70
1063;DHT22;520;50.932;6.962;2023-01-15T02:41:58;9.20;97.70
1063;DHT22;520;50.932;6.962;2023-01-15T02:44:43;9.30;97.40
1063;DHT22;520;50.932;6.962;2023-01-15T02:47:12;9.50;97.10
1063;DHT22;520;50.932;6.962;2023-01-15T02:49:51;9.30;97.30
1063;DHT22;520;50.932;6.962;2023-01-15T02:52:42;9.40;97.30
1063;DHT22;520;50.932;6.962;2023-01-15T02:55:31;9.20;97.60
1063;DHT22;520;50.932;6.962;2023-01-15T02:58:20;9.40;97.60
1063;DHT22;520;50.932;6.962;2023-01-15T03:01:33;9.20;97.30
1063;DHT22;520;50.932;6.962;2023-01-15T03:04:16;9.40;97.60
1063;DHT22;520;50.932;6.962;2023-01-15T03:10:09;9.30;97.30
1063;DHT22;520;50.932;6.962;2023-01-15T03:12:46;9.20;97.60
1063;DHT22;520;50.932;6.962;2023-01-15T03:16:00;9.10;98.00
1063;DHT22;520;50.932;6.962;2023-01-15T03:25:09;9.20;97.80
1063;DHT22;520;50.932;6.962;2023-01-15T03:27:57;9.20;98.40
1063;DHT22;520;50.932;6.962;2023-01-15T03:30:45;9.10;98.30
1063;DHT22;520;50.932;6.962;2023-01-15T03:33:18;9.30;97.50
1063;DHT22;520;50.932;6.962;2023-01-15T03:35:54;9.30;96.70
1063;DHT22;520;50.932;6.962;2023-01-15T03:38:34;9.20;96.60
1063;DHT22;520;50.932;6.962;2023-01-15T03:43:50;9.40;96.00
1063;DHT22;520;50.932;6.962;2023-01-15T03:49:46;9.30;95.00
1063;DHT22;520;50.932;6.962;2023-01-15T03:52:24;9.30;95.00
1063;DHT22;520;50.932;6.962;2023-01-15T03:57:40;9.40;94.40
1063;DHT22;520;50.932;6.962;2023-01-15T04:02:59;9.40;95.10
1063;DHT22;520;50.932;6.962;2023-01-15T04:05:44;9.30;94.90
1063;DHT22;520;50.932;6.962;2023-01-15T04:08:14;9.10;95.20
1063;DHT22;520;50.932;6.962;2023-01-15T04:10:54;9.30;95.50
1063;DHT22;520;50.932;6.962;2023-01-15T04:13:30;9.20;95.20
1063;DHT22;520;50.932;6.962;2023-01-15T04:15:57;9.40;94.90
1063;DHT22;520;50.932;6.962;2023-01-15T04:18:30;9.40;94.80
1063;DHT22;520;50.932;6.962;2023-01-15T04:21:14;9.10;95.30
1063;DHT22;520;50.932;6.962;2023-01-15T04:23:42;9.20;95.50
1063;DHT22;520;50.932;6.962;2023-01-15T04:26:13;9.20;95.30
1063;DHT22;520;50.932;6.962;2023-01-15T04:28:44;9.40;94.80
1063;DHT22;520;50.932;6.962;2023-01-15T04:31:14;9.20;95.00
1063;DHT22;520;50.932;6.962;2023-01-15T04:33:44;9.40;95.10
1063;DHT22;520;50.932;6.962;2023-01-15T04:36:11;9.20;95.10
1063;DHT22;520;50.932;6.962;2023-01-15T04:38:46;9.00;95.50
1063;DHT22;520;50.932;6.962;2023-01-15T04:41:18;9.00;96.20
1063;DHT22;520;50.932;6.962;2023-01-15T04:44:09;9.10;96.40
1063;DHT22;520;50.932;6.962;2023-01-15T04:46:52;9.30;95.80
1063;DHT22;520;50.932;6.962;2023-01-15T04:49:25;9.20;96.00
1063;DHT22;520;50.932;6.962;2023-01-15T04:52:06;9.40;96.00
1063;DHT22;520;50.932;6.962;2023-01-15T04:54:36;9.50;95.70
1063;DHT22;520;50.932;6.962;2023-01-15T04:57:10;9.50;95.60
1063;DHT22;520;50.932;6.962;2023-01-15T04:59:42;9.40;95.70
1063;DHT22;520;50.932;6.962;2023-01-15T05:02:11;9.40;95.90
1063;DHT22;520;50.932;6.962;2023-01-15T05:04:40;9.40;96.10
1063;DHT22;520;50.932;6.962;2023-01-15T05:07:10;9.40;95.80
1063;DHT22;520;50.932;6.962;2023-01-15T05:09:38;9.30;96.00
1063;DHT22;520;50.932;6.962;2023-01-15T05:12:07;9.20;95.80
1063;DHT22;520;50.932;6.962;2023-01-15T05:14:43;9.10;96.00
1063;DHT22;520;50.932;6.962;2023-01-15T05:17:14;9.10;96.30
1063;DHT22;520;50.932;6.962;2023-01-15T05:19:42;8.90;96.40
1063;DHT22;520;50.932;6.962;2023-01-15T05:22:12;9.00;96.70
1063;DHT22;520;50.932;6.962;2023-01-15T05:24:45;9.00;96.30
1063;DHT22;520;50.932;6.962;2023-01-15T05:27:12;8.90;96.40
1063;DHT22;520;50.932;6.962;2023-01-15T05:29:42;8.90;96.70
1063;DHT22;520;50.932;6.962;2023-01-15T05:32:09;8.90;96.70
1063;DHT22;520;50.932;6.962;2023-01-15T05:34:36;9.10;96.20
1063;DHT22;520;50.932;6.962;2023-01-15T05:37:03;9.10;96.00
1063;DHT22;520;50.932;6.962;2023-01-15T05:39:37;9.10;96.00
1063;DHT22;520;50.932;6.962;2023-01-15T05:42:07;9.00;96.10
1063;DHT22;520;50.932;6.962;2023-01-15T05:44:40;8.90;96.10
1063;DHT22;520;50.932;6.962;2023-01-15T05:47:08;8.90;96.00
1063;DHT22;520;50.932;6.962;2023-01-15T05:49:36;9.20;95.70
1063;DHT22;520;50.932;6.962;2023-01-15T05:52:07;9.50;94.30
1063;DHT22;520;50.932;6.962;2023-01-15T05:54:44;9.30;93.80
1063;DHT22;520;50.932;6.962;2023-01-15T05:57:26;9.10;94.10
1063;DHT22;520;50.932;6.962;2023-01-15T06:00:03;9.00;94.50
1063;DHT22;520;50.932;6.962;2023-01-15T06:02:55;8.90;94.70
1063;DHT22;520;50.932;6.962;2023-01-15T06:05:38;8.90;94.60
1063;DHT22;520;50.932;6.962;2023-01-15T06:08:42;8.90;94.80
1063;DHT22;520;50.932;6.962;2023-01-15T06:11:23;8.80;95.00
1063;DHT22;520;50.932;6.962;2023-01-15T06:13:51;9.10;95.30
1063;DHT22;520;50.932;6.962;2023-01-15T06:16:46;9.30;95.00
1063;DHT22;520;50.932;6.962;2023-01-15T06:19:27;9.30;94.80
1063;DHT22;520;50.932;6.962;2023-01-15T06:22:18;9.10;95.40
1063;DHT22;520;50.932;6.962;2023-01-15T06:25:32;9.10;95.90
1063;DHT22;520;50.932;6.962;2023-01-15T06:31:49;8.80;96.30
1063;DHT22;520;50.932;6.962;2023-01-15T06:34:46;8.70;97.00
1063;DHT22;520;50.932;6.962;2023-01-15T06:37:15;8.70;97.10
1063;DHT22;520;50.932;6.962;2023-01-15T06:39:55;8.60;97.40
1063;DHT22;520;50.932;6.962;2023-01-15T06:42:22;8.80;97.00
1063;DHT22;520;50.932;6.962;2023-01-15T06:45:14;8.90;96.80
1063;DHT22;520;50.932;6.962;2023-01-15T06:48:07;8.80;96.60
1063;DHT22;520;50.932;6.962;2023-01-15T06:50:37;8.80;96.80
1063;DHT22;520;50.932;6.962;2023-01-15T06:53:19;8.90;96.20
1063;DHT22;520;50.932;6.962;2023-01-15T06:55:55;8.70;96.40
1063;DHT22;520;50.932;6.962;2023-01-15T06:58:35;9.00;96.30
1063;DHT22;520;50.932;6.962;2023-01-15T07:01:21;8.80;96.60
1063;DHT22;520;50.932;6.962;2023-01-15T07:04:12;8.70;96.90
1063;DHT22;520;50.932;6.962;2023-01-15T07:06:39;8.90;96.90
1063;DHT22;520;50.932;6.962;2023-01-15T07:09:18;8.80;96.80
1063;DHT22;520;50.932;6.962;2023-01-15T07:11:59;8.80;96.90
1063;DHT22;520;50.932;6.962;2023-01-15T07:14:30;8.60;97.80
1063;DHT22;520;50.932;6.962;2023-01-15T07:17:06;8.60;97.90
1063;DHT22;520;50.932;6.962;2023-01-15T07:19:38;8.60;97.80
1063;DHT22;520;50.932;6.962;2023-01-15T07:22:22;8.50;98.20
1063;DHT22;520;50.932;6.962;2023-01-15T07:24:50;8.50;98.30
1063;DHT22;520;50.932;6.962;2023-01-15T07:27:44;8.20;98.60
1063;DHT22;520;50.932;6.962;2023-01-15T07:30:12;8.20;99.10
1063;DHT22;520;50.932;6.962;2023-01-15T07:32:55;8.40;98.80
1063;DHT22;520;50.932;6.962;2023-01-15T07:35:34;8.40;98.60
1063;DHT22;520;50.932;6.962;2023-01-15T07:38:26;8.30;98.60
1063;DHT22;520;50.932;6.962;2023-01-15T07:41:06;8.30;98.90
1063;DHT22;520;50.932;6.962;2023-01-15T07:43:59;8.30;98.90
1063;DHT22;520;50.932;6.962;2023-01-15T07:47:24;8.40;98.90
1063;DHT22;520;50.932;6.962;2023-01-15T07:50:23;8.30;98.90
1063;DHT22;520;50.932;6.962;2023-01-15T07:52:56;8.30;99.20
1063;DHT22;520;50.932;6.962;2023-01-15T07:55:35;8.50;99.10
1063;DHT22;520;50.932;6.962;2023-01-15T07:58:17;8.50;98.70
1063;DHT22;520;50.932;6.962;2023-01-15T08:00:51;8.60;98.60
1063;DHT22;520;50.932;6.962;2023-01-15T08:03:22;8.50;98.40
1063;DHT22;520;50.932;6.962;2023-01-15T08:05:52;8.40;98.50
1063;DHT22;520;50.932;6.962;2023-01-15T08:08:33;8.30;99.00
1063;DHT22;520;50.932;6.962;2023-01-15T08:11:09;8.40;99.30
1063;DHT22;520;50.932;6.962;2023-01-15T08:14:02;8.40;99.00
1063;DHT22;520;50.932;6.962;2023-01-15T08:16:56;8.30;99.40
1063;DHT22;520;50.932;6.962;2023-01-15T08:20:04;8.20;99.00
1063;DHT22;520;50.932;6.962;2023-01-15T08:22:46;8.10;98.50
1063;DHT22;520;50.932;6.962;2023-01-15T08:25:32;8.00;98.20
1063;DHT22;520;50.932;6.962;2023-01-15T08:28:01;7.90;98.90
1063;DHT22;520;50.932;6.962;2023-01-15T08:30:38;7.80;99.40
1063;DHT22;520;50.932;6.962;2023-01-15T08:33:18;7.90;99.90
1063;DHT22;520;50.932;6.962;2023-01-15T08:35:55;8.00;98.70
1063;DHT22;520;50.932;6.962;2023-01-15T08:38:22;7.90;98.60
1063;DHT22;520;50.932;6.962;2023-01-15T08:41:28;7.80;99.30
1063;DHT22;520;50.932;6.962;2023-01-15T08:44:21;7.60;99.40
1063;DHT22;520;50.932;6.962;2023-01-15T08:47:05;7.60;99.90
1063;DHT22;520;50.932;6.962;2023-01-15T08:49:42;7.80;99.90
1063;DHT22;520;50.932;6.962;2023-01-15T08:52:31;7.70;99.90
1063;DHT22;520;50.932;6.962;2023-01-15T08:55:10;7.50;99.90
1063;DHT22;520;50.932;6.962;2023-01-15T08:57:51;7.60;99.90
1063;DHT22;520;50.932;6.962;2023-01-15T09:01:02;7.70;99.90
1063;DHT22;520;50.932;6.962;2023-01-15T09:04:02;8.00;99.90
1063;DHT22;520;50.932;6.962;2023-01-15T09:06:46;8.10;99.90
1063;DHT22;520;50.932;6.962;2023-01-15T09:09:29;8.10;99.90
1063;DHT22;520;50.932;6.962;2023-01-15T09:12:08;8.00;99.90
1063;DHT22;520;50.932;6.962;2023-01-15T09:14:46;8.10;99.90
1063;DHT22;520;50.932;6.962;2023-01-15T09:17:21;8.10;99.90
1063;DHT22;520;50.932;6.962;2023-01-15T09:20:03;8.10;99.90
1063;DHT22;520;50.932;6.962;2023-01-15T09:22:37;8.00;99.90
1063;DHT22;520;50.932;6.962;2023-01-15T09:25:21;7.90;99.90
1063;DHT22;520;50.932;6.962;2023-01-15T09:28:01;7.90;99.90
1063;DHT22;520;50.932;6.962;2023-01-15T09:30:42;8.00;99.90
1063;DHT22;520;50.932;6.962;2023-01-15T09:33:19;7.80;99.90
1063;DHT22;520;50.932;6.962;2023-01-15T09:35:51;7.90;99.90
1063;DHT22;520;50.932;6.962;2023-01-15T09:38:27;7.90;99.90
1063;DHT22;520;50.932;6.962;2023-01-15T09:41:02;8.10;99.90
1063;DHT22;520;50.932;6.962;2023-01-15T09:47:25;8.30;99.90
1063;DHT22;520;50.932;6.962;2023-01-15T10:00:03;11.70;92.60
1063;DHT22;520;50.932;6.962;2023-01-15T10:02:42;12.40;90.20
1063;DHT22;520;50.932;6.962;2023-01-15T10:05:34;12.00;89.40
1063;DHT22;520;50.932;6.962;2023-01-15T10:14:04;12.60;88.60
1063;DHT22;520;50.932;6.962;2023-01-15T10:16:37;12.40;87.20
1063;DHT22;520;50.932;6.962;2023-01-15T10:20:15;11.80;87.00
1063;DHT22;520;50.932;6.962;2023-01-15T10:29:16;10.30;91.60
1063;DHT22;520;50.932;6.962;2023-01-15T10:38:11;9.90;92.70
1063;DHT22;520;50.932;6.962;2023-01-15T10:47:13;9.80;92.40
1063;DHT22;520;50.932;6.962;2023-01-15T10:49:58;10.00;91.80
1063;DHT22;520;50.932;6.962;2023-01-15T10:52:42;9.90;92.50
1063;DHT22;520;50.932;6.962;2023-01-15T10:55:30;9.80;91.90
1063;DHT22;520;50.932;6.962;2023-01-15T10:58:34;10.10;90.70
1063;DHT22;520;50.932;6.962;2023-01-15T11:01:16;9.90;91.20
1063;DHT22;520;50.932;6.962;2023-01-15T11:03:54;9.90;91.40
1063;DHT22;520;50.932;6.962;2023-01-15T11:06:31;9.80;90.70
1063;DHT22;520;50.932;6.962;2023-01-15T11:09:45;9.60;91.00
1063;DHT22;520;50.932;6.962;2023-01-15T11:12:28;9.60;91.50
1063;DHT22;520;50.932;6.962;2023-01-15T11:15:31;9.70;91.30
1063;DHT22;520;50.932;6.962;2023-01-15T11:18:41;9.80;91.50
1063;DHT22;520;50.932;6.962;2023-01-15T11:21:41;10.00;90.80
1063;DHT22;520;50.932;6.962;2023-01-15T11:24:19;10.20;90.20
1063;DHT22;520;50.932;6.962;2023-01-15T11:26:56;10.10;89.60
1063;DHT22;520;50.932;6.962;2023-01-15T11:29:42;10.00;88.60
1063;DHT22;520;50.932;6.962;2023-01-15T11:33:00;10.00;89.30
1063;DHT22;520;50.932;6.962;2023-01-15T11:36:19;10.10;88.50
1063;DHT22;520;50.932;6.962;2023-01-15T11:39:28;10.10;88.80
1063;DHT22;520;50.932;6.962;2023-01-15T11:42:19;10.00;88.80
1063;DHT22;520;50.932;6.962;2023-01-15T11:45:23;9.90;90.30
1063;DHT22;520;50.932;6.962;2023-01-15T11:48:54;9.90;89.90
1063;DHT22;520;50.932;6.962;2023-01-15T11:52:07;9.80;90.40
1063;DHT22;520;50.932;6.962;2023-01-15T11:55:16;9.80;90.50
1063;DHT22;520;50.932;6.962;2023-01-15T11:58:10;9.90;90.20
1063;DHT22;520;50.932;6.962;2023-01-15T12:00:43;9.80;90.10
1063;DHT22;520;50.932;6.962;2023-01-15T12:03:20;9.70;90.20
1063;DHT22;520;50.932;6.962;2023-01-15T12:06:06;9.50;90.10
1063;DHT22;520;50.932;6.962;2023-01-15T12:08:47;9.50;90.60
1063;DHT22;520;50.932;6.962;2023-01-15T12:28:53;9.50;91.10
1063;DHT22;520;50.932;6.962;2023-01-15T12:31:41;9.50;90.80
1063;DHT22;520;50.932;6.962;2023-01-15T12:37:22;9.40;90.90
1063;DHT22;520;50.932;6.962;2023-01-15T12:40:19;9.40;90.80
1063;DHT22;520;50.932;6.962;2023-01-15T12:42:49;9.50;90.90
1063;DHT22;520;50.932;6.962;2023-01-15T12:45:51;9.60;90.90
1063;DHT22;520;50.932;6.962;2023-01-15T12:50:58;9.70;91.00
1063;DHT22;520;50.932;6.962;2023-01-15T12:53:50;9.70;90.70
1063;DHT22;520;50.932;6.962;2023-01-15T12:56:26;9.60;90.50
1063;DHT22;520;50.932;6.962;2023-01-15T12:59:23;9.60;90.80
1063;DHT22;520;50.932;6.962;2023-01-15T13:01:57;9.70;90.50
1063;DHT22;520;50.932;6.962;2023-01-15T13:04:44;9.60;90.60
1063;DHT22;520;50.932;6.962;2023-01-15T13:10:30;9.70;90.50
1063;DHT22;520;50.932;6.962;2023-01-15T13:13:34;9.70;90.30
1063;DHT22;520;50.932;6.962;2023-01-15T13:39:03;9.70;90.00
1063;DHT22;520;50.932;6.962;2023-01-15T13:41:42;9.60;90.00
1063;DHT22;520;50.932;6.962;2023-01-15T13:44:48;9.80;89.90
1063;DHT22;520;50.932;6.962;2023-01-15T13:47:24;10.00;87.70
1063;DHT22;520;50.932;6.962;2023-01-15T13:49:56;10.00;87.40
1063;DHT22;520;50.932;6.962;2023-01-15T13:52:32;9.80;88.20
1063;DHT22;520;50.932;6.962;2023-01-15T13:57:56;10.00;86.90
1063;DHT22;520;50.932;6.962;2023-01-15T14:00:34;9.90;88.10
1063;DHT22;520;50.932;6.962;2023-01-15T14:03:28;9.90;88.30
1063;DHT22;520;50.932;6.962;2023-01-15T14:06:03;10.00;86.30
1063;DHT22;520;50.932;6.962;2023-01-15T14:08:41;10.10;86.40
1063;DHT22;520;50.932;6.962;2023-01-15T14:11:35;10.00;86.10
1063;DHT22;520;50.932;6.962;2023-01-15T14:23:01;9.70;87.90
1063;DHT22;520;50.932;6.962;2023-01-15T14:34:13;9.80;87.60
1063;DHT22;520;50.932;6.962;2023-01-15T14:39:40;9.70;87.80
1063;DHT22;520;50.932;6.962;2023-01-15T14:42:13;9.70;88.00
1063;DHT22;520;50.932;6.962;2023-01-15T14:45:04;9.90;87.00
1063;DHT22;520;50.932;6.962;2023-01-15T14:47:52;9.70;87.10
1063;DHT22;520;50.932;6.962;2023-01-15T14:50:46;9.60;87.80
1063;DHT22;520;50.932;6.962;2023-01-15T14:53:49;9.60;88.40
1063;DHT22;520;50.932;6.962;2023-01-15T14:56:38;9.70;88.40
1063;DHT22;520;50.932;6.962;2023-01-15T14:59:40;9.60;88.80
1063;DHT22;520;50.932;6.962;2023-01-15T15:02:21;9.60;88.90
1063;DHT22;520;50.932;6.962;2023-01-15T15:04:53;9.50;88.90
1063;DHT22;520;50.932;6.962;2023-01-15T15:07:49;9.40;88.90
1063;DHT22;520;50.932;6.962;2023-01-15T15:10:24;9.50;89.10
1063;DHT22;520;50.932;6.962;2023-01-15T15:13:04;9.50;88.90
1063;DHT22;520;50.932;6.962;2023-01-15T15:15:47;9.60;88.70
1063;DHT22;520;50.932;6.962;2023-01-15T15:18:22;9.90;87.90
1063;DHT22;520;50.932;6.962;2023-01-15T15:23:38;9.70;88.30
1063;DHT22;520;50.932;6.962;2023-01-15T15:26:26;9.50;89.20
1063;DHT22;520;50.932;6.962;2023-01-15T15:29:11;9.60;89.60
1063;DHT22;520;50.932;6.962;2023-01-15T15:31:44;9.70;89.60
1063;DHT22;520;50.932;6.962;2023-01-15T15:34:27;9.90;88.00
1063;DHT22;520;50.932;6.962;2023-01-15T15:36:57;9.70;88.30
1063;DHT22;520;50.932;6.962;2023-01-15T15:42:25;9.40;90.30
1063;DHT22;520;50.932;6.962;2023-01-15T15:45:23;9.50;90.60
1063;DHT22;520;50.932;6.962;2023-01-15T15:48:20;9.60;90.80
1063;DHT22;520;50.932;6.962;2023-01-15T15:53:49;9.40;91.10
1063;DHT22;520;50.932;6.962;2023-01-15T15:56:16;9.40;91.00
1063;DHT22;520;50.932;6.962;2023-01-15T15:58:45;9.30;91.10
1063;DHT22;520;50.932;6.962;2023-01-15T16:01:12;9.30;91.30
1063;DHT22;520;50.932;6.962;2023-01-15T16:03:47;9.50;91.20
1063;DHT22;520;50.932;6.962;2023-01-15T16:06:22;9.60;90.60
1063;DHT22;520;50.932;6.962;2023-01-15T16:08:57;9.70;90.20
1063;DHT22;520;50.932;6.962;2023-01-15T16:11:31;9.70;90.30
1063;DHT22;520;50.932;6.962;2023-01-15T16:14:07;9.40;90.50
1063;DHT22;520;50.932;6.962;2023-01-15T16:16:38;9.40;90.50
1063;DHT22;520;50.932;6.962;2023-01-15T16:19:06;9.30;90.80
1063;DHT22;520;50.932;6.962;2023-01-15T16:21:40;9.40;90.60
1063;DHT22;520;50.932;6.962;2023-01-15T16:24:22;9.40;90.60
1063;DHT22;520;50.932;6.962;2023-01-15T16:27:15;9.60;90.70
1063;DHT22;520;50.932;6.962;2023-01-15T16:29:49;9.70;90.10
1063;DHT22;520;50.932;6.962;2023-01-15T16:32:22;9.40;90.10
1063;DHT22;520;50.932;6.962;2023-01-15T16:34:59;9.60;90.40
1063;DHT22;520;50.932;6.962;2023-01-15T16:37:27;9.60;90.10
1063;DHT22;520;50.932;6.962;2023-01-15T16:39:59;9.60;90.20
1063;DHT22;520;50.932;6.962;2023-01-15T16:42:38;9.40;90.20
1063;DHT22;520;50.932;6.962;2023-01-15T16:45:26;9.30;90.70
1063;DHT22;520;50.932;6.962;2023-01-15T16:50:29;9.60;90.40
1063;DHT22;520;50.932;6.962;2023-01-15T16:52:58;9.60;90.30
1063;DHT22;520;50.932;6.962;2023-01-15T16:55:41;9.40;90.10
1063;DHT22;520;50.932;6.962;2023-01-15T16:58:34;9.60;90.40
1063;DHT22;520;50.932;6.962;2023-01-15T17:03:48;9.50;90.40
1063;DHT22;520;50.932;6.962;2023-01-15T17:06:19;9.50;90.20
1063;DHT22;520;50.932;6.962;2023-01-15T17:08:48;9.50;90.40
1063;DHT22;520;50.932;6.962;2023-01-15T17:11:27;9.40;90.50
1063;DHT22;520;50.932;6.962;2023-01-15T17:14:30;9.50;90.70
1063;DHT22;520;50.932;6.962;2023-01-15T17:19:45;9.60;90.30
1063;DHT22;520;50.932;6.962;2023-01-15T17:22:25;9.50;90.40
1063;DHT22;520;50.932;6.962;2023-01-15T17:24:55;9.50;90.60
1063;DHT22;520;50.932;6.962;2023-01-15T17:27:26;9.60;90.50
1063;DHT22;520;50.932;6.962;2023-01-15T17:29:56;9.40;90.70
1063;DHT22;520;50.932;6.962;2023-01-15T17:32:29;9.60;90.50
1063;DHT22;520;50.932;6.962;2023-01-15T17:34:58;9.50;90.30
1063;DHT22;520;50.932;6.962;2023-01-15T17:37:25;9.40;90.60
1063;DHT22;520;50.932;6.962;2023-01-15T17:39:51;9.50;90.40
1063;DHT22;520;50.932;6.962;2023-01-15T17:42:18;9.50;90.50
1063;DHT22;520;50.932;6.962;2023-01-15T17:44:45;9.40;90.70
1063;DHT22;520;50.932;6.962;2023-01-15T17:47:12;9.50;90.80
1063;DHT22;520;50.932;6.962;2023-01-15T17:49:49;9.30;90.80
1063;DHT22;520;50.932;6.962;2023-01-15T17:52:32;9.40;91.00
1063;DHT22;520;50.932;6.962;2023-01-15T17:55:02;9.30;91.40
1063;DHT22;520;50.932;6.962;2023-01-15T17:57:55;9.20;91.90
1063;DHT22;520;50.932;6.962;2023-01-15T18:00:51;9.20;92.20
1063;DHT22;520;50.932;6.962;2023-01-15T18:03:42;9.30;92.40
1063;DHT22;520;50.932;6.962;2023-01-15T18:06:28;9.40;92.50
1063;DHT22;520;50.932;6.962;2023-01-15T18:08:57;9.40;92.40
1063;DHT22;520;50.932;6.962;2023-01-15T18:11:26;9.30;92.30
1063;DHT22;520;50.932;6.962;2023-01-15T18:14:05;9.50;91.90
1063;DHT22;520;50.932;6.962;2023-01-15T18:16:50;9.50;91.70
1063;DHT22;520;50.932;6.962;2023-01-15T18:19:23;9.40;91.80
1063;DHT22;520;50.932;6.962;2023-01-15T18:21:50;9.40;91.90
1063;DHT22;520;50.932;6.962;2023-01-15T18:24:26;9.20;91.90
1063;DHT22;520;50.932;6.962;2023-01-15T18:27:00;9.20;92.40
1063;DHT22;520;50.932;6.962;2023-01-15T18:29:36;9.10;92.50
1063;DHT22;520;50.932;6.962;2023-01-15T18:32:13;9.20;92.50
1063;DHT22;520;50.932;6.962;2023-01-15T18:34:48;9.50;92.00
1063;DHT22;520;50.932;6.962;2023-01-15T18:37:17;9.60;91.50
1063;DHT22;520;50.932;6.962;2023-01-15T18:40:08;9.40;91.50
1063;DHT22;520;50.932;6.962;2023-01-15T18:42:37;9.40;91.90
1063;DHT22;520;50.932;6.962;2023-01-15T18:45:46;9.50;91.90
1063;DHT22;520;50.932;6.962;2023-01-15T18:48:32;9.60;91.30
1063;DHT22;520;50.932;6.962;2023-01-15T18:51:09;9.70;91.20
1063;DHT22;520;50.932;6.962;2023-01-15T18:53:36;9.60;91.00
1063;DHT22;520;50.932;6.962;2023-01-15T18:56:03;9.60;91.20
1063;DHT22;520;50.932;6.962;2023-01-15T18:59:09;9.60;91.30
1063;DHT22;520;50.932;6.962;2023-01-15T19:01:38;9.60;91.40
1063;DHT22;520;50.932;6.962;2023-01-15T19:04:06;9.50;91.50
1063;DHT22;520;50.932;6.962;2023-01-15T19:06:37;9.50;91.50
1063;DHT22;520;50.932;6.962;2023-01-15T19:09:05;9.40;91.70
1063;DHT22;520;50.932;6.962;2023-01-15T19:11:33;9.30;91.90
1063;DHT22;520;50.932;6.962;2023-01-15T19:14:00;9.30;91.90
1063;DHT22;520;50.932;6.962;2023-01-15T19:16:46;9.30;92.10
1063;DHT22;520;50.932;6.962;2023-01-15T19:19:31;9.30;92.00
1063;DHT22;520;50.932;6.962;2023-01-15T19:21:58;9.30;91.90
1063;DHT22;520;50.932;6.962;2023-01-15T19:24:55;9.20;92.10
1063;DHT22;520;50.932;6.962;2023-01-15T19:27:21;9.00;92.40
1063;DHT22;520;50.932;6.962;2023-01-15T19:29:48;9.10;92.30
1063;DHT22;520;50.932;6.962;2023-01-15T19:36:05;9.00;92.50
1063;DHT22;520;50.932;6.962;2023-01-15T19:39:36;9.00;92.90
1063;DHT22;520;50.932;6.962;2023-01-15T19:50:19;8.70;93.70
1063;DHT22;520;50.932;6.962;2023-01-15T19:53:29;8.70;94.20
1063;DHT22;520;50.932;6.962;2023-01-15T20:08:03;8.80;94.60
1063;DHT22;520;50.932;6.962;2023-01-15T20:11:17;8.80;94.50
1063;DHT22;520;50.932;6.962;2023-01-15T20:27:31;8.80;94.70
1063;DHT22;520;50.932;6.962;2023-01-15T21:08:39;8.80;94.70
1063;DHT22;520;50.932;6.962;2023-01-15T21:12:00;8.70;94.80
1063;DHT22;520;50.932;6.962;2023-01-15T21:15:32;8.80;94.80
1063;DHT22;520;50.932;6.962;2023-01-15T22:12:09;8.80;96.90
1063;DHT22;520;50.932;6.962;2023-01-15T22:18:10;8.80;96.90
1063;DHT22;520;50.932;6.962;2023-01-15T22:25:03;8.70;97.40
1063;DHT22;520;50.932;6.962;2023-01-15T22:31:04;8.60;97.40
1063;DHT22;520;50.932;6.962;2023-01-15T22:34:35;8.70;97.30
1063;DHT22;520;50.932;6.962;2023-01-15T22:45:01;8.60;97.10
1063;DHT22;520;50.932;6.962;2023-01-15T22:50:26;8.50;97.60
1063;DHT22;520;50.932;6.962;2023-01-15T22:56:37;8.60;97.20
1063;DHT22;520;50.932;6.962;2023-01-15T22:59:43;8.60;97.30
1063;DHT22;520;50.932;6.962;2023-01-15T23:05:54;8.60;97.20
1063;DHT22;520;50.932;6.962;2023-01-15T23:08:35;8.60;97.20
1063;DHT22;520;50.932;6.962;2023-01-15T23:11:44;8.50;97.40
1063;DHT22;520;50.932;6.962;2023-01-15T23:18:14;8.60;97.40
1063;DHT22;520;50.932;6.962;2023-01-15T23:21:42;8.60;97.50
1063;DHT22;520;50.932;6.962;2023-01-15T23:24:25;8.40;97.60
1063;DHT22;520;50.932;6.962;2023-01-15T23:33:17;8.50;97.50
1063;DHT22;520;50.932;6.962;2023-01-15T23:36:38;8.40;97.60
1063;DHT22;520;50.932;6.962;2023-01-15T23:43:59;8.20;98.10
1063;DHT22;520;50.932;6.962;2023-01-15T23:47:35;8.30;98.20
1063;DHT22;520;50.932;6.962;2023-01-15T23:50:39;8.10;98.50
1063;DHT22;520;50.932;6.962;2023-01-15T23:53:37;8.10;98.70
